Time;durP1;ratioP1;P1;durP2;ratioP2;P2;SDS_P1;SDS_P2;PMS_P1;PMS_P2;Temp;Humidity;BMP_temperature;BMP_pressure;BME280_temperature;BME280_humidity;BME280_pressure;Samples;Min_cycle;Max_cycle;Signal;HPM_P1;HPM_P2
2023/01/10 00:01:43;;;;;;;2.30;2.10;;;;;;;2.64;100.00;95646.38;5080873;28;20428;-77
2023/01/10 00:04:10;;;;;;;1.77;1.67;;;;;;;2.63;100.00;95635.16;5074174;28;20862;-76
2023/01/10 00:06:36;;;;;;;1.97;1.80;;;;;;;2.28;100.00;95602.75;5082280;28;20496;-76
2023/01/10 00:09:03;;;;;;;2.53;2.33;;;;;;;2.05;100.00;95554.19;5082346;28;20469;-76
2023/01/10 00:14:15;;;;;;;1.93;1.47;;;;;;;2.50;100.00;95616.94;5072304;28;20444;-76
2023/01/10 00:16:42;;;;;;;2.10;2.00;;;;;;;2.53;100.00;95634.59;5079157;28;20459;-77
2023/01/10 00:19:09;;;;;;;2.20;1.97;;;;;;;2.50;100.00;95640.41;5087617;28;20454;-77
2023/01/10 00:21:38;;;;;;;1.97;1.83;;;;;;;2.35;100.00;95639.63;5080119;28;20818;-76
2023/01/10 00:26:59;;;;;;;2.33;2.13;;;;;;;2.15;100.00;95605.38;5078329;28;20440;-77
2023/01/10 00:29:30;;;;;;;1.90;1.80;;;;;;;2.37;100.00;95653.16;5086522;28;20444;-76
2023/01/10 00:31:57;;;;;;;3.10;2.07;;;;;;;2.00;100.00;95598.59;5061775;28;20444;-76
2023/01/10 00:34:23;;;;;;;2.40;2.07;;;;;;;2.25;100.00;95636.44;5063312;28;20464;-76
2023/01/10 00:36:50;;;;;;;2.50;1.70;;;;;;;2.48;100.00;95647.75;5081049;28;20547;-76
2023/01/10 00:39:20;;;;;;;1.93;1.83;;;;;;;2.13;100.00;95594.44;5080434;28;20424;-77
2023/01/10 00:44:32;;;;;;;2.33;2.13;;;;;;;2.57;100.00;95651.22;5089398;28;20535;-76
2023/01/10 00:46:59;;;;;;;2.57;2.37;;;;;;;2.75;100.00;95689.47;5087990;28;20428;-76
2023/01/10 00:49:25;;;;;;;2.80;2.60;;;;;;;1.81;100.00;95596.06;5086161;28;20428;-76
2023/01/10 00:51:56;;;;;;;3.43;2.50;;;;;;;2.52;100.00;95693.06;5084898;28;20478;-75
2023/01/10 00:54:23;;;;;;;4.00;2.50;;;;;;;1.73;100.00;95574.03;5086059;28;20808;-77
2023/01/10 00:56:50;;;;;;;4.93;2.90;;;;;;;2.58;100.00;95708.34;5084016;28;20424;-76
2023/01/10 00:59:17;;;;;;;2.53;2.20;;;;;;;1.10;100.00;95513.97;5085052;28;20444;-76
2023/01/10 01:01:44;;;;;;;2.83;2.23;;;;;;;1.83;100.00;95622.59;5088536;28;20429;-77
2023/01/10 01:04:10;;;;;;;2.63;2.43;;;;;;;2.35;100.00;95704.84;5090849;28;20426;-77
2023/01/10 01:06:37;;;;;;;3.30;2.07;;;;;;;2.35;100.00;95699.63;5091548;28;20415;-76
2023/01/10 01:09:04;;;;;;;2.70;1.90;;;;;;;2.56;100.00;95735.78;5085702;28;20464;-76
2023/01/10 01:11:31;;;;;;;2.87;2.67;;;;;;;1.98;100.00;95671.09;5098432;28;20427;-73
2023/01/10 01:13:57;;;;;;;2.20;2.00;;;;;;;2.29;100.00;95700.03;5081004;28;20451;-73
2023/01/10 01:16:24;;;;;;;2.37;2.17;;;;;;;2.58;100.00;95752.69;5080861;28;20447;-74
2023/01/10 01:18:51;;;;;;;2.20;2.10;;;;;;;2.12;100.00;95687.53;5098077;28;20454;-77
2023/01/10 01:21:18;;;;;;;3.93;3.07;;;;;;;1.36;100.00;95551.53;5083433;28;20898;-77
2023/01/10 01:23:44;;;;;;;2.40;2.20;;;;;;;2.51;100.00;95734.03;5081268;28;20429;-76
2023/01/10 01:26:11;;;;;;;2.90;2.70;;;;;;;2.72;100.00;95765.75;5075330;28;20930;-77
2023/01/10 01:28:38;;;;;;;3.50;2.67;;;;;;;2.14;100.00;95679.41;5075781;28;20539;-76
2023/01/10 01:31:09;;;;;;;3.03;2.50;;;;;;;2.36;100.00;95727.25;5073443;28;20462;-76
2023/01/10 01:33:36;;;;;;;2.80;2.47;;;;;;;2.28;100.00;95716.72;5081733;28;20503;-76
2023/01/10 01:36:08;;;;;;;4.00;3.47;;;;;;;2.69;100.00;95781.22;5076286;28;20539;-77
2023/01/10 01:38:39;;;;;;;4.80;2.73;;;;;;;2.04;100.00;95722.09;5062171;28;20437;-75
2023/01/10 01:41:55;;;;;;;2.87;2.67;;;;;;;1.82;100.00;95680.22;5084259;28;20436;-76
2023/01/10 01:44:12;;;;;;;2.70;2.50;;;;;;;2.35;100.00;95749.19;5078190;28;20432;-77
2023/01/10 01:46:42;;;;;;;2.80;2.60;;;;;;;2.72;100.00;95825.78;5069865;28;20568;-77
2023/01/10 01:49:16;;;;;;;3.00;2.80;;;;;;;1.63;100.00;95680.28;5081385;28;20436;-76
2023/01/10 01:51:48;;;;;;;3.20;2.60;;;;;;;2.08;100.00;95760.31;5083572;28;20419;-77
2023/01/10 01:54:15;;;;;;;3.70;1.93;;;;;;;1.66;100.00;95695.34;5080327;28;20507;-77
2023/01/10 01:57:02;;;;;;;2.40;2.20;;;;;;;2.47;100.00;95832.19;5078542;28;20458;-77
2023/01/10 01:59:33;;;;;;;2.70;2.50;;;;;;;1.74;100.00;95711.09;5075305;28;20474;-76
2023/01/10 02:02:11;;;;;;;6.80;2.03;;;;;;;2.20;100.00;95799.00;5085472;28;20943;-76
2023/01/10 02:04:45;;;;;;;3.37;2.40;;;;;;;1.59;100.00;95700.13;5085009;28;20511;-77
2023/01/10 02:07:12;;;;;;;2.73;2.53;;;;;;;1.96;100.00;95748.78;5084153;28;20473;-77
2023/01/10 02:09:53;;;;;;;2.00;1.40;;;;;;;2.77;100.00;95867.44;5085678;28;20552;-77
2023/01/10 02:12:20;;;;;;;6.80;2.77;;;;;;;1.88;100.00;95763.25;5094826;28;20443;-77
2023/01/10 02:14:49;;;;;;;3.57;2.47;;;;;;;2.72;100.00;95864.16;5082211;28;20452;-77
2023/01/10 02:17:16;;;;;;;6.80;2.10;;;;;;;2.44;100.00;95821.56;5082363;28;20443;-76
2023/01/10 02:20:02;;;;;;;5.73;3.23;;;;;;;2.30;100.00;95827.53;5088251;28;20435;-76
2023/01/10 02:22:44;;;;;;;4.70;2.30;;;;;;;2.71;100.00;95883.47;5039492;28;1163782;-76
2023/01/10 02:25:29;;;;;;;1.70;1.60;;;;;;;2.69;100.00;95896.03;5084323;28;20205;-76
2023/01/10 02:28:14;;;;;;;6.00;2.23;;;;;;;1.78;100.00;95756.38;5086467;28;20431;-76
2023/01/10 02:31:03;;;;;;;1.97;1.83;;;;;;;1.30;100.00;95669.81;5085406;28;20428;-76
2023/01/10 02:33:36;;;;;;;3.80;2.07;;;;;;;1.57;100.00;95731.66;5084123;28;20453;-76
2023/01/10 02:36:03;;;;;;;2.40;2.20;;;;;;;2.64;100.00;95889.81;5086994;28;20519;-77
2023/01/10 02:39:11;;;;;;;3.87;2.43;;;;;;;2.63;100.00;95893.50;5087246;28;20428;-77
2023/01/10 02:41:52;;;;;;;1.70;1.60;;;;;;;2.50;100.00;95896.06;5080298;28;20429;-77
2023/01/10 02:44:30;;;;;;;3.40;2.40;;;;;;;2.28;100.00;95849.72;5081442;28;21003;-76
2023/01/10 02:46:57;;;;;;;2.43;2.23;;;;;;;1.70;100.00;95757.00;5082625;28;20455;-76
2023/01/10 02:49:23;;;;;;;2.90;1.83;;;;;;;2.10;100.00;95809.56;5084482;28;20436;-77
2023/01/10 02:51:50;;;;;;;2.60;2.00;;;;;;;2.31;100.00;95852.53;5070528;28;20428;-77
2023/01/10 02:54:22;;;;;;;2.53;2.00;;;;;;;2.10;100.00;95835.66;5084417;28;20522;-76
2023/01/10 02:57:16;;;;;;;2.77;1.90;;;;;;;2.54;100.00;95928.38;5086668;28;20431;-76
2023/01/10 02:59:52;;;;;;;4.13;1.83;;;;;;;2.58;100.00;95929.34;5086279;28;20511;-76
2023/01/10 03:02:29;;;;;;;2.97;1.97;;;;;;;1.45;100.00;95771.16;5087185;28;20420;-76
2023/01/10 03:05:22;;;;;;;2.80;2.47;;;;;;;2.57;100.00;95935.63;5088979;28;20468;-77
2023/01/10 03:07:51;;;;;;;2.73;1.70;;;;;;;2.66;100.00;95939.91;5087695;28;20416;-76
2023/01/10 03:10:27;;;;;;;3.03;2.03;;;;;;;1.21;100.00;95749.63;5087750;28;20428;-76
2023/01/10 03:13:03;;;;;;;2.93;1.90;;;;;;;1.73;100.00;95832.00;5067237;28;20437;-76
2023/01/10 03:15:34;;;;;;;1.63;1.53;;;;;;;1.65;100.00;95821.44;5081875;28;20456;-76
2023/01/10 03:18:05;;;;;;;1.93;1.73;;;;;;;1.92;100.00;95852.09;5088756;28;20436;-76
2023/01/10 03:20:36;;;;;;;3.10;1.93;;;;;;;1.97;100.00;95847.56;5092213;28;20428;-77
2023/01/10 03:23:05;;;;;;;2.73;2.20;;;;;;;2.25;100.00;95900.59;5091294;28;20468;-77
2023/01/10 03:25:36;;;;;;;3.20;2.50;;;;;;;2.46;100.00;95950.66;5090956;28;20491;-77
2023/01/10 03:28:37;;;;;;;2.07;1.87;;;;;;;2.25;100.00;95934.50;5089930;28;20431;-77
2023/01/10 03:31:12;;;;;;;3.10;2.77;;;;;;;1.60;100.00;95847.53;5077235;28;20440;-76
2023/01/10 03:33:41;;;;;;;3.60;2.90;;;;;;;1.49;100.00;95823.47;5091432;28;20473;-77
2023/01/10 03:36:21;;;;;;;5.50;2.43;;;;;;;1.58;100.00;95841.84;5089409;28;20451;-77
2023/01/10 03:38:54;;;;;;;3.07;2.03;;;;;;;2.63;100.00;95991.88;5089937;28;20436;-77
2023/01/10 03:41:44;;;;;;;4.00;2.83;;;;;;;2.68;100.00;95994.44;5089613;28;20467;-76
2023/01/10 03:47:06;;;;;;;2.30;2.10;;;;;;;1.65;100.00;95829.25;5090935;28;20456;-77
2023/01/10 03:49:36;;;;;;;3.43;2.77;;;;;;;2.85;100.00;96014.81;5089836;28;20432;-76
2023/01/10 03:52:04;;;;;;;10.83;2.93;;;;;;;1.91;100.00;95874.00;5072579;28;20478;-77
2023/01/10 03:54:31;;;;;;;4.17;2.60;;;;;;;2.86;100.00;96022.34;5090289;28;20452;-76
2023/01/10 03:56:58;;;;;;;2.97;2.70;;;;;;;1.81;100.00;95877.50;5091601;28;20423;-76
2023/01/10 03:59:27;;;;;;;3.87;2.27;;;;;;;1.81;100.00;95880.09;5091491;28;20428;-77
2023/01/10 04:01:54;;;;;;;3.20;2.30;;;;;;;1.59;100.00;95840.78;5090437;28;20451;-77
2023/01/10 04:04:21;;;;;;;2.93;2.63;;;;;;;1.83;100.00;95879.81;5090149;28;20432;-76
2023/01/10 04:06:48;;;;;;;3.03;2.00;;;;;;;2.37;100.00;95968.00;5089638;28;20543;-77
2023/01/10 04:09:15;;;;;;;2.43;2.23;;;;;;;2.19;100.00;95943.47;5090476;28;20444;-76
2023/01/10 04:11:41;;;;;;;2.37;2.17;;;;;;;2.87;100.00;96057.06;5101257;28;20534;-77
2023/01/10 04:14:08;;;;;;;2.70;2.17;;;;;;;2.81;100.00;96061.59;5093371;28;20447;-76
2023/01/10 04:16:34;;;;;;;5.57;2.47;;;;;;;2.05;100.00;95932.19;5089074;28;20474;-76
2023/01/10 04:19:01;;;;;;;3.33;2.57;;;;;;;1.80;100.00;95909.06;5092740;28;20435;-76
2023/01/10 04:21:28;;;;;;;3.63;2.40;;;;;;;2.50;100.00;96027.28;5088606;28;20460;-76
2023/01/10 04:23:54;;;;;;;2.60;2.40;;;;;;;2.13;100.00;95957.63;5087929;28;20440;-76
2023/01/10 04:26:21;;;;;;;2.43;2.23;;;;;;;1.84;100.00;95916.03;5088484;28;20436;-76
2023/01/10 04:28:48;;;;;;;4.60;3.00;;;;;;;2.49;100.00;96017.13;5086848;28;20440;-77
2023/01/10 04:31:14;;;;;;;2.60;2.40;;;;;;;1.75;100.00;95907.31;5089291;28;20440;-76
2023/01/10 04:33:41;;;;;;;2.37;2.00;;;;;;;2.90;100.00;96098.25;5085520;28;20432;-76
2023/01/10 04:36:08;;;;;;;2.03;1.80;;;;;;;2.80;100.00;96082.72;5086484;28;20444;-77
2023/01/10 04:38:35;;;;;;;4.17;2.93;;;;;;;2.46;100.00;96031.53;5088033;28;20432;-76
2023/01/10 04:41:01;;;;;;;3.30;3.00;;;;;;;1.62;100.00;95911.38;5085386;28;20435;-76
2023/01/10 04:43:28;;;;;;;3.07;2.70;;;;;;;1.86;100.00;95957.44;5086644;28;20492;-76
2023/01/10 04:45:55;;;;;;;5.23;2.40;;;;;;;2.86;100.00;96113.72;5085115;28;20476;-76
2023/01/10 04:48:21;;;;;;;3.67;2.80;;;;;;;1.71;100.00;95955.78;5084873;28;20428;-75
2023/01/10 04:50:49;;;;;;;3.17;2.97;;;;;;;1.88;100.00;95979.59;5087853;28;20500;-77
2023/01/10 04:53:17;;;;;;;3.13;2.83;;;;;;;2.77;100.00;96123.22;5087997;28;20420;-76
2023/01/10 04:55:43;;;;;;;4.80;2.93;;;;;;;2.44;100.00;96067.56;5086915;28;20903;-77
2023/01/10 04:58:10;;;;;;;4.07;2.60;;;;;;;1.77;100.00;95970.34;5088643;28;20455;-77
2023/01/10 05:00:37;;;;;;;3.53;2.40;;;;;;;1.55;100.00;95954.41;5087382;28;20409;-77
2023/01/10 05:03:04;;;;;;;2.83;2.40;;;;;;;1.56;100.00;95971.59;5088504;28;20432;-76
2023/01/10 05:05:31;;;;;;;3.40;2.83;;;;;;;2.24;100.00;96086.03;5088403;28;20456;-75
2023/01/10 05:07:58;;;;;;;3.00;2.67;;;;;;;1.45;100.00;95983.94;5089069;28;20440;-76
2023/01/10 05:10:25;;;;;;;3.03;2.77;;;;;;;1.03;100.00;95925.50;5090325;28;20428;-76
2023/01/10 05:12:51;;;;;;;2.87;2.67;;;;;;;2.13;100.00;96082.00;5090015;28;20431;-76
2023/01/10 05:15:20;;;;;;;2.70;2.50;;;;;;;1.38;100.00;95993.94;5072746;28;20559;-76
2023/01/10 05:17:50;;;;;;;3.93;2.93;;;;;;;2.36;100.00;96156.84;5090658;28;20420;-76
2023/01/10 05:20:17;;;;;;;3.83;2.97;;;;;;;2.20;100.00;96132.00;5096976;28;20435;-77
2023/01/10 05:22:44;;;;;;;3.43;2.50;;;;;;;2.31;100.00;96151.72;5090148;28;20444;-76
2023/01/10 05:25:11;;;;;;;4.20;3.80;;;;;;;1.48;100.00;96014.66;5088609;28;20452;-77
2023/01/10 05:27:41;;;;;;;3.50;2.83;;;;;;;1.76;100.00;96068.56;5087882;28;20432;-76
2023/01/10 05:30:10;;;;;;;2.63;2.43;;;;;;;2.35;100.00;96170.97;5089252;28;20437;-76
2023/01/10 05:32:38;;;;;;;3.03;2.50;;;;;;;1.58;100.00;96037.22;5088469;28;20500;-76
2023/01/10 05:35:05;;;;;;;2.20;2.10;;;;;;;2.14;100.00;96125.25;5091534;28;20447;-75
2023/01/10 05:37:32;;;;;;;3.20;2.43;;;;;;;0.73;100.00;95952.59;5090172;28;20436;-76
2023/01/10 05:39:58;;;;;;;2.70;2.50;;;;;;;1.41;100.00;96056.66;5087185;28;20424;-76
2023/01/10 05:42:25;;;;;;;2.43;2.23;;;;;;;0.99;100.00;96012.22;5090052;28;20428;-76
2023/01/10 05:44:52;;;;;;;2.10;1.90;;;;;;;2.17;100.00;96166.47;5087228;28;20456;-76
2023/01/10 05:47:19;;;;;;;2.53;2.33;;;;;;;2.35;100.00;96189.22;5089254;28;20441;-75
2023/01/10 05:49:45;;;;;;;2.57;2.37;;;;;;;1.64;100.00;96093.44;5089274;28;20931;-77
2023/01/10 05:52:12;;;;;;;4.00;2.60;;;;;;;1.35;100.00;96068.19;5085157;28;20480;-77
2023/01/10 05:54:39;;;;;;;4.57;3.47;;;;;;;2.39;100.00;96211.06;5082737;28;20456;-76
2023/01/10 05:57:06;;;;;;;3.10;2.60;;;;;;;1.44;100.00;96058.69;5084253;28;20428;-76
2023/01/10 05:59:36;;;;;;;5.87;3.73;;;;;;;2.32;100.00;96184.56;5081907;28;20447;-75
2023/01/10 06:02:02;;;;;;;4.20;3.63;;;;;;;2.32;100.00;96189.78;5069774;28;20451;-74
2023/01/10 06:04:29;;;;;;;3.47;3.27;;;;;;;2.48;100.00;96211.25;5069510;28;20463;-75
2023/01/10 06:06:56;;;;;;;5.03;3.67;;;;;;;2.66;100.00;96237.41;5069391;28;20468;-74
2023/01/10 06:09:22;;;;;;;4.93;3.60;;;;;;;2.59;100.00;96225.75;5052989;28;20432;-74
2023/01/10 06:11:49;;;;;;;3.03;2.83;;;;;;;2.66;100.00;96236.63;5082572;28;20424;-75
2023/01/10 06:14:18;;;;;;;3.67;3.37;;;;;;;2.52;100.00;96220.09;5054756;28;20528;-74
2023/01/10 06:16:45;;;;;;;6.87;3.93;;;;;;;2.47;100.00;96230.59;5070865;28;20432;-74
2023/01/10 06:19:12;;;;;;;3.43;3.13;;;;;;;2.40;100.00;96236.13;5075079;28;20449;-74
2023/01/10 06:21:40;;;;;;;3.37;3.10;;;;;;;2.50;100.00;96261.34;5069474;28;20455;-74
2023/01/10 06:24:07;;;;;;;3.80;3.40;;;;;;;2.62;100.00;96277.41;5069124;28;20493;-74
2023/01/10 06:26:33;;;;;;;3.13;2.93;;;;;;;2.53;100.00;96279.03;5069343;28;20468;-74
2023/01/10 06:29:00;;;;;;;3.60;3.30;;;;;;;2.60;100.00;96279.50;5070689;28;20429;-74
2023/01/10 06:31:27;;;;;;;2.97;2.73;;;;;;;2.51;100.00;96278.53;5052917;28;20483;-74
2023/01/10 06:33:53;;;;;;;7.63;2.97;;;;;;;2.51;100.00;96278.53;5069703;28;20420;-74
2023/01/10 06:36:20;;;;;;;5.23;3.57;;;;;;;2.70;100.00;96313.34;5069935;28;20512;-74
2023/01/10 06:38:47;;;;;;;3.97;3.57;;;;;;;2.61;100.00;96310.53;5070902;28;20435;-74
2023/01/10 06:41:13;;;;;;;3.60;3.20;;;;;;;2.78;100.00;96322.41;5069396;28;20431;-74
2023/01/10 06:43:45;;;;;;;4.00;3.70;;;;;;;2.53;100.00;96294.69;5052706;28;20443;-74
2023/01/10 06:46:15;;;;;;;4.50;3.90;;;;;;;2.51;100.00;96305.41;5069176;28;20547;-74
2023/01/10 06:48:44;;;;;;;3.90;3.60;;;;;;;2.38;100.00;96301.59;5040194;28;21117;-74
2023/01/10 06:51:12;;;;;;;3.30;3.10;;;;;;;2.70;100.00;96338.66;5069490;28;20482;-74
2023/01/10 06:53:39;;;;;;;3.60;3.30;;;;;;;2.31;100.00;96316.03;5070808;28;20471;-75
2023/01/10 06:56:08;;;;;;;3.30;2.63;;;;;;;2.55;100.00;96342.19;5069321;28;20451;-76
2023/01/10 06:58:37;;;;;;;3.70;3.50;;;;;;;2.31;100.00;96327.25;5072238;28;20431;-76
2023/01/10 07:01:13;;;;;;;5.43;2.70;;;;;;;2.57;100.00;96351.31;5074294;28;20432;-76
2023/01/10 07:03:40;;;;;;;3.23;2.93;;;;;;;2.51;100.00;96330.72;5099321;28;20428;-76
2023/01/10 07:06:09;;;;;;;3.90;3.47;;;;;;;2.66;100.00;96367.13;5099996;28;20440;-76
2023/01/10 07:08:37;;;;;;;3.20;2.87;;;;;;;2.51;100.00;96349.78;5093013;28;20448;-76
2023/01/10 07:11:03;;;;;;;4.07;3.70;;;;;;;2.38;100.00;96338.13;5078482;28;20463;-76
2023/01/10 07:13:30;;;;;;;3.73;3.43;;;;;;;2.49;100.00;96361.53;5081009;28;20546;-76
2023/01/10 07:16:07;;;;;;;3.53;2.93;;;;;;;2.56;100.00;96391.50;5072963;28;20985;-75
2023/01/10 07:18:40;;;;;;;3.50;3.10;;;;;;;2.55;100.00;96397.00;5078251;28;20431;-75
2023/01/10 07:21:09;;;;;;;4.60;3.87;;;;;;;2.61;100.00;96403.72;5073647;28;20481;-75
2023/01/10 07:23:35;;;;;;;4.83;3.00;;;;;;;2.35;100.00;96383.03;5072710;28;20493;-75
2023/01/10 07:26:08;;;;;;;3.60;3.27;;;;;;;2.39;100.00;96419.78;5072575;28;20467;-75
2023/01/10 07:28:36;;;;;;;4.63;3.90;;;;;;;2.31;100.00;96412.56;5072558;28;20445;-75
2023/01/10 07:31:04;;;;;;;3.90;2.97;;;;;;;2.28;100.00;96393.00;5056030;28;20444;-75
2023/01/10 07:33:31;;;;;;;4.83;3.83;;;;;;;2.43;100.00;96409.59;5072335;28;20490;-75
2023/01/10 07:35:59;;;;;;;4.57;3.90;;;;;;;2.19;100.00;96389.41;5072518;28;20543;-75
2023/01/10 07:38:27;;;;;;;4.00;3.60;;;;;;;2.13;100.00;96406.13;5072366;28;20428;-75
2023/01/10 07:40:54;;;;;;;4.67;3.57;;;;;;;2.47;100.00;96458.34;5072289;28;20440;-75
2023/01/10 07:43:21;;;;;;;9.27;3.20;;;;;;;2.31;100.00;96464.72;5055590;28;20446;-75
2023/01/10 07:45:47;;;;;;;3.57;3.27;;;;;;;2.24;100.00;96465.00;5055437;28;20452;-76
2023/01/10 07:48:14;;;;;;;3.80;3.13;;;;;;;2.14;100.00;96422.53;5072224;28;20916;-76
2023/01/10 07:50:40;;;;;;;4.93;4.53;;;;;;;2.31;100.00;96454.28;5073503;28;20433;-76
2023/01/10 07:53:08;;;;;;;4.30;3.90;;;;;;;2.50;100.00;96476.06;5072060;28;20420;-76
2023/01/10 07:55:38;;;;;;;5.50;4.00;;;;;;;2.63;100.00;96485.91;5073319;28;20441;-75
2023/01/10 07:58:06;;;;;;;9.03;5.03;;;;;;;2.51;100.00;96490.69;5053731;28;20429;-75
2023/01/10 08:00:34;;;;;;;5.77;3.70;;;;;;;2.48;100.00;96490.44;5064706;28;20488;-76
2023/01/10 08:03:01;;;;;;;3.50;3.20;;;;;;;2.63;100.00;96496.34;5071805;28;20544;-76
2023/01/10 08:05:28;;;;;;;4.70;4.13;;;;;;;2.37;100.00;96476.66;5071863;28;20460;-76
2023/01/10 08:07:58;;;;;;;6.00;4.13;;;;;;;2.69;100.00;96507.56;5071742;28;20452;-75
2023/01/10 08:10:25;;;;;;;4.33;3.27;;;;;;;2.60;100.00;96490.91;5073224;28;20420;-75
2023/01/10 08:12:52;;;;;;;5.40;4.33;;;;;;;2.74;100.00;96507.50;5060050;28;20778;-75
2023/01/10 08:15:19;;;;;;;4.30;3.90;;;;;;;2.30;100.00;96437.84;5071726;28;20464;-75
2023/01/10 08:17:45;;;;;;;3.97;3.67;;;;;;;2.70;100.00;96503.88;5071818;28;20457;-76
2023/01/10 08:20:12;;;;;;;6.23;3.87;;;;;;;2.74;100.00;96504.13;5076028;28;20436;-76
2023/01/10 08:22:39;;;;;;;6.53;3.67;;;;;;;2.86;100.00;96530.66;5071543;28;20440;-76
2023/01/10 08:25:06;;;;;;;5.43;3.97;;;;;;;2.73;100.00;96502.56;5072715;28;20509;-75
2023/01/10 08:27:32;;;;;;;4.40;3.60;;;;;;;2.55;100.00;96499.53;5071443;28;20449;-76
2023/01/10 08:29:59;;;;;;;4.70;3.73;;;;;;;2.81;100.00;96522.88;5054749;28;20536;-76
2023/01/10 08:32:26;;;;;;;5.73;3.53;;;;;;;2.93;100.00;96539.75;5071403;28;20432;-75
2023/01/10 08:34:52;;;;;;;3.70;3.40;;;;;;;2.98;100.00;96546.78;5071143;28;20460;-75
2023/01/10 08:37:19;;;;;;;3.13;2.93;;;;;;;2.69;100.00;96509.38;5071462;28;20416;-76
2023/01/10 08:39:45;;;;;;;3.90;3.20;;;;;;;2.84;100.00;96556.28;5054650;28;20432;-75
2023/01/10 08:42:12;;;;;;;4.30;3.90;;;;;;;2.87;100.00;96566.94;5071394;28;20870;-75
2023/01/10 08:44:39;;;;;;;4.00;3.53;;;;;;;2.76;100.00;96555.00;5071111;28;20487;-75
2023/01/10 08:47:05;;;;;;;3.57;3.27;;;;;;;2.55;100.00;96524.88;5070994;28;20464;-75
2023/01/10 08:49:32;;;;;;;3.00;2.70;;;;;;;2.61;100.00;96547.25;5054461;28;20462;-75
2023/01/10 08:52:01;;;;;;;3.90;3.40;;;;;;;2.48;100.00;96529.59;5070959;28;21005;-75
2023/01/10 08:54:27;;;;;;;4.10;3.70;;;;;;;2.70;100.00;96576.97;5054231;28;20452;-75
2023/01/10 08:56:54;;;;;;;6.83;4.20;;;;;;;2.55;100.00;96564.00;5070871;28;20506;-75
2023/01/10 08:59:21;;;;;;;6.07;3.50;;;;;;;2.71;100.00;96594.19;5070992;28;21051;-75
2023/01/10 09:01:47;;;;;;;4.57;3.80;;;;;;;2.49;100.00;96589.31;5070756;28;20445;-76
2023/01/10 09:04:14;;;;;;;3.30;2.70;;;;;;;2.51;100.00;96573.41;5070646;28;20436;-76
2023/01/10 09:06:41;;;;;;;3.57;3.27;;;;;;;2.21;100.00;96561.25;5070879;28;20468;-76
2023/01/10 09:09:08;;;;;;;3.93;3.40;;;;;;;2.47;100.00;96594.03;5054258;28;20468;-76
2023/01/10 09:11:35;;;;;;;6.60;3.33;;;;;;;2.52;100.00;96614.09;5080442;28;20435;-76
2023/01/10 09:14:01;;;;;;;5.10;4.60;;;;;;;2.52;100.00;96608.88;5074037;28;20527;-75
2023/01/10 09:16:29;;;;;;;4.03;3.40;;;;;;;2.58;100.00;96619.06;5077669;28;20521;-75
2023/01/10 09:18:56;;;;;;;7.00;4.10;;;;;;;2.50;100.00;96618.81;5072372;28;20433;-75
2023/01/10 09:21:22;;;;;;;5.90;5.30;;;;;;;2.17;100.00;96558.41;5071196;28;20526;-76
2023/01/10 09:23:49;;;;;;;6.97;4.30;;;;;;;2.51;100.00;96602.09;5070450;28;20470;-76
2023/01/10 09:26:16;;;;;;;4.23;3.83;;;;;;;2.46;100.00;96618.56;5071493;28;20882;-76
2023/01/10 09:28:42;;;;;;;5.47;4.47;;;;;;;2.54;100.00;96627.69;5070313;28;20424;-76
2023/01/10 09:31:10;;;;;;;6.10;4.70;;;;;;;2.60;100.00;96635.22;5070165;28;20523;-76
2023/01/10 09:33:40;;;;;;;7.37;4.43;;;;;;;2.41;100.00;96610.78;5070260;28;20424;-76
2023/01/10 09:36:14;;;;;;;5.07;4.57;;;;;;;2.37;100.00;96567.97;5071491;28;20451;-76
2023/01/10 09:38:41;;;;;;;5.17;4.67;;;;;;;2.64;100.00;96612.75;5053566;28;20428;-76
2023/01/10 09:41:11;;;;;;;5.90;4.30;;;;;;;2.93;100.00;96640.81;5070387;28;20839;-76
2023/01/10 09:43:57;;;;;;;4.50;4.03;;;;;;;2.75;100.00;96644.81;5070140;28;20871;-76
2023/01/10 09:46:32;;;;;;;6.37;4.90;;;;;;;2.88;100.00;96644.22;5022866;28;20461;-76
2023/01/10 09:49:27;;;;;;;3.77;3.27;;;;;;;2.97;100.00;96658.31;5070039;28;20432;-76
2023/01/10 09:51:56;;;;;;;6.07;3.57;;;;;;;2.92;100.00;96653.09;5057015;28;20435;-76
2023/01/10 09:54:28;;;;;;;4.50;4.10;;;;;;;2.77;100.00;96634.88;5053746;28;20436;-75
2023/01/10 09:56:57;;;;;;;3.27;2.97;;;;;;;2.93;100.00;96672.91;5053421;28;20490;-76
2023/01/10 09:59:35;;;;;;;4.43;3.93;;;;;;;3.01;100.00;96674.19;5070358;28;20503;-76
2023/01/10 10:02:23;;;;;;;4.83;3.73;;;;;;;3.05;100.00;96674.44;5070202;28;20516;-76
2023/01/10 10:05:12;;;;;;;10.80;4.07;;;;;;;2.97;100.00;96667.97;5069730;28;20467;-75
2023/01/10 10:07:39;;;;;;;7.07;3.40;;;;;;;2.88;100.00;96659.13;5053242;28;20818;-76
2023/01/10 10:10:11;;;;;;;5.67;3.07;;;;;;;2.89;100.00;96652.84;5069733;28;20948;-75
2023/01/10 10:12:48;;;;;;;6.10;3.97;;;;;;;2.92;100.00;96660.91;5083330;28;20869;-76
2023/01/10 10:15:42;;;;;;;6.67;4.17;;;;;;;2.82;100.00;96632.25;5071635;28;20769;-75
2023/01/10 10:18:15;;;;;;;3.60;3.30;;;;;;;3.02;100.00;96654.88;5054919;28;20428;-75
2023/01/10 10:21:08;;;;;;;4.63;3.57;;;;;;;3.09;100.00;96670.25;5073348;28;20428;-76
2023/01/10 10:23:44;;;;;;;3.70;3.40;;;;;;;3.14;100.00;96678.06;5052934;28;20438;-76
2023/01/10 10:26:37;;;;;;;4.63;2.93;;;;;;;3.09;100.00;96678.88;5070961;28;20493;-76
2023/01/10 10:29:22;;;;;;;6.20;3.60;;;;;;;3.10;100.00;96688.28;5069717;28;20442;-76
2023/01/10 10:32:34;;;;;;;3.23;2.90;;;;;;;3.05;100.00;96698.72;5069606;28;20458;-75
2023/01/10 10:35:12;;;;;;;7.70;3.27;;;;;;;3.08;100.00;96692.22;5071348;28;20526;-76
2023/01/10 10:37:48;;;;;;;4.50;2.90;;;;;;;3.00;100.00;96671.88;5073752;28;20892;-76
2023/01/10 10:40:15;;;;;;;6.00;3.53;;;;;;;3.12;100.00;96685.38;5073671;28;20412;-76
2023/01/10 10:42:46;;;;;;;4.90;2.70;;;;;;;2.82;100.00;96618.44;5073689;28;20455;-76
2023/01/10 10:45:35;;;;;;;5.03;2.40;;;;;;;2.73;100.00;96623.41;5054972;28;20457;-76
2023/01/10 10:48:21;;;;;;;6.07;4.00;;;;;;;3.15;100.00;96688.25;5069018;28;20460;-76
2023/01/10 10:51:11;;;;;;;6.80;3.00;;;;;;;3.17;100.00;96688.75;5074746;28;20519;-76
2023/01/10 10:53:37;;;;;;;12.13;4.33;;;;;;;3.08;100.00;96666.88;5074784;28;20462;-76
2023/01/10 10:56:10;;;;;;;4.73;4.20;;;;;;;3.21;100.00;96655.03;5056652;28;20452;-76
2023/01/10 10:58:40;;;;;;;6.83;5.27;;;;;;;3.46;100.00;96686.22;5073184;28;20436;-76
2023/01/10 11:01:15;;;;;;;6.53;3.83;;;;;;;3.21;100.00;96644.59;5056520;28;20436;-76
2023/01/10 11:03:54;;;;;;;8.20;4.20;;;;;;;3.39;100.00;96677.91;5055357;28;20794;-76
2023/01/10 11:06:25;;;;;;;9.23;4.47;;;;;;;3.28;100.00;96670.41;5055392;28;20469;-76
2023/01/10 11:08:56;;;;;;;6.60;4.57;;;;;;;3.37;100.00;96692.31;5056346;28;20554;-76
2023/01/10 11:11:33;;;;;;;6.73;3.00;;;;;;;3.13;100.00;96676.50;5078068;28;20438;-76
2023/01/10 11:14:04;;;;;;;5.80;3.50;;;;;;;3.34;100.00;96726.81;5072955;28;20471;-76
2023/01/10 11:16:39;;;;;;;11.00;5.00;;;;;;;3.40;100.00;96736.97;5074228;28;20420;-76
2023/01/10 11:19:18;;;;;;;6.53;3.87;;;;;;;3.34;100.00;96725.00;5061204;28;20474;-76
2023/01/10 11:22:01;;;;;;;7.30;3.63;;;;;;;3.30;100.00;96729.19;5072647;28;20533;-76
2023/01/10 11:24:32;;;;;;;3.73;2.80;;;;;;;3.08;100.00;96692.22;5072893;28;20531;-75
2023/01/10 11:27:12;;;;;;;7.80;2.90;;;;;;;3.25;100.00;96739.66;5072799;28;20847;-76
2023/01/10 11:29:44;;;;;;;5.60;2.90;;;;;;;3.01;100.00;96689.09;5072707;28;20478;-76
2023/01/10 11:32:14;;;;;;;4.63;2.70;;;;;;;3.25;100.00;96721.38;5072667;28;20808;-76
2023/01/10 11:34:49;;;;;;;7.90;3.43;;;;;;;3.02;100.00;96677.59;5072336;28;20462;-76
2023/01/10 11:37:31;;;;;;;8.87;3.23;;;;;;;2.97;100.00;96670.56;5043818;28;20438;-76
2023/01/10 11:40:18;;;;;;;8.33;3.47;;;;;;;3.23;100.00;96719.03;5072345;28;20477;-76
2023/01/10 11:42:46;;;;;;;3.30;2.60;;;;;;;3.22;100.00;96714.88;5073689;28;20427;-76
2023/01/10 11:45:18;;;;;;;2.40;2.20;;;;;;;3.26;100.00;96728.94;5071969;28;20828;-76
2023/01/10 11:47:53;;;;;;;3.60;2.53;;;;;;;3.23;100.00;96729.47;5072134;28;20475;-76
2023/01/10 11:50:30;;;;;;;4.60;2.37;;;;;;;3.28;100.00;96739.13;5072557;28;20922;-76
2023/01/10 11:52:57;;;;;;;3.53;2.30;;;;;;;3.33;100.00;96746.16;5072230;28;20447;-75
2023/01/10 11:55:30;;;;;;;2.53;2.20;;;;;;;3.37;100.00;96731.50;5072191;28;20457;-75
2023/01/10 11:58:05;;;;;;;4.40;2.73;;;;;;;3.35;100.00;96715.31;5072089;28;20854;-76
2023/01/10 12:00:39;;;;;;;4.10;2.70;;;;;;;3.38;100.00;96723.41;5073472;28;20503;-76
2023/01/10 12:03:27;;;;;;;4.40;2.57;;;;;;;3.37;100.00;96727.06;5055633;28;20455;-76